createdAt,value
2019-05-23T00:00:03.861Z,10.40
2019-05-23T00:02:57.288Z,7.23
2019-05-23T00:05:53.258Z,7.77
2019-05-23T00:08:42.010Z,7.50
2019-05-23T00:11:32.901Z,5.80
2019-05-23T00:14:20.179Z,7.80
2019-05-23T00:16:51.819Z,7.03
2019-05-23T00:19:24.029Z,6.90
2019-05-23T00:21:56.054Z,6.83
2019-05-23T00:24:27.294Z,8.20
2019-05-23T00:26:59.732Z,6.33
2019-05-23T00:29:30.026Z,7.93
2019-05-23T00:32:06.801Z,6.17
2019-05-23T00:34:37.499Z,7.97
2019-05-23T00:37:09.324Z,6.80
2019-05-23T00:39:40.733Z,6.90
2019-05-23T00:42:13.080Z,7.67
2019-05-23T00:44:43.419Z,5.93
2019-05-23T00:47:13.738Z,5.87
2019-05-23T00:49:44.043Z,7.57
2019-05-23T00:52:14.982Z,5.33
2019-05-23T00:54:45.288Z,5.70
2019-05-23T00:57:16.324Z,6.80
2019-05-23T00:59:47.859Z,4.53
2019-05-23T01:02:19.569Z,7.00
2019-05-23T01:04:50.829Z,7.03
2019-05-23T01:07:23.346Z,5.60
2019-05-23T01:09:53.771Z,6.87
2019-05-23T01:12:24.111Z,6.30
2019-05-23T01:14:55.197Z,8.33
2019-05-23T01:17:27.459Z,5.97
2019-05-23T01:19:58.658Z,5.50
2019-05-23T01:22:29.688Z,5.23
2019-05-23T01:25:00.372Z,5.23
2019-05-23T01:27:31.302Z,5.13
2019-05-23T01:30:03.200Z,5.53
2019-05-23T01:32:47.196Z,5.63
2019-05-23T01:35:22.241Z,5.70
2019-05-23T01:37:53.584Z,6.03
2019-05-23T01:40:24.844Z,6.80
2019-05-23T01:42:57.153Z,6.53
2019-05-23T01:45:28.086Z,7.03
2019-05-23T01:47:59.074Z,5.13
2019-05-23T01:50:30.495Z,5.50
2019-05-23T01:53:00.827Z,7.70
2019-05-23T01:55:31.477Z,5.80
2019-05-23T01:58:02.206Z,5.37
2019-05-23T02:00:33.311Z,6.57
2019-05-23T02:03:03.907Z,5.70
2019-05-23T02:05:34.636Z,5.23
2019-05-23T02:08:08.153Z,5.83
2019-05-23T02:10:38.807Z,6.30
2019-05-23T02:13:10.428Z,5.90
2019-05-23T02:15:40.763Z,6.70
2019-05-23T02:18:11.545Z,7.57
2019-05-23T02:20:42.961Z,6.30
2019-05-23T02:23:14.990Z,5.87
2019-05-23T02:25:46.210Z,6.17
2019-05-23T02:28:17.121Z,6.07
2019-05-23T02:30:48.214Z,7.03
2019-05-23T02:33:18.954Z,6.47
2019-05-23T02:35:49.775Z,5.13
2019-05-23T02:38:29.221Z,7.10
2019-05-23T02:41:18.485Z,7.90
2019-05-23T02:43:52.903Z,6.07
2019-05-23T02:46:31.090Z,9.43
2019-05-23T02:49:04.579Z,7.60
2019-05-23T02:51:37.158Z,7.80
2019-05-23T02:54:11.867Z,6.77
2019-05-23T02:56:43.594Z,7.90
2019-05-23T02:59:21.540Z,6.70
2019-05-23T03:02:30.230Z,6.90
2019-05-23T03:05:00.662Z,7.00
2019-05-23T03:07:33.222Z,7.97
2019-05-23T03:10:05.614Z,9.60
2019-05-23T03:12:38.874Z,6.27
2019-05-23T03:15:12.775Z,6.33
2019-05-23T03:17:47.593Z,7.10
2019-05-23T03:20:19.437Z,8.73
2019-05-23T03:22:53.519Z,5.67
2019-05-23T03:26:18.818Z,5.80
2019-05-23T03:28:49.598Z,6.63
2019-05-23T03:31:32.143Z,7.47
2019-05-23T03:34:01.576Z,6.67
2019-05-23T03:36:31.894Z,7.43
2019-05-23T03:39:02.839Z,10.80
2019-05-23T03:41:33.513Z,8.80
2019-05-23T03:44:05.227Z,6.87
2019-05-23T03:46:37.560Z,9.80
2019-05-23T03:49:11.491Z,8.37
2019-05-23T03:51:42.605Z,9.60
2019-05-23T03:54:13.544Z,8.67
2019-05-23T03:56:45.412Z,11.23
2019-05-23T03:59:15.865Z,7.33
2019-05-23T04:01:49.311Z,6.73
2019-05-23T04:04:21.915Z,8.40
2019-05-23T04:06:52.686Z,10.13
2019-05-23T04:09:23.039Z,7.43
2019-05-23T04:11:55.963Z,10.33
2019-05-23T04:14:26.409Z,7.53
2019-05-23T04:16:57.069Z,7.67
2019-05-23T04:19:27.680Z,10.03
2019-05-23T04:21:58.116Z,10.10
2019-05-23T04:24:28.389Z,8.57
2019-05-23T04:26:58.857Z,7.90
2019-05-23T04:29:29.789Z,9.10
2019-05-23T04:32:07.970Z,9.23
2019-05-23T04:34:32.500Z,7.47
2019-05-23T04:37:02.834Z,9.60
2019-05-23T04:39:33.153Z,7.73
2019-05-23T04:42:05.579Z,7.80
2019-05-23T04:44:36.671Z,7.90
2019-05-23T04:47:08.551Z,10.57
2019-05-23T04:49:39.215Z,8.93
2019-05-23T04:52:10.252Z,8.97
2019-05-23T04:54:41.283Z,8.90
2019-05-23T04:57:13.252Z,8.93
2019-05-23T04:59:43.569Z,8.33
2019-05-23T05:02:25.553Z,8.20
2019-05-23T05:04:49.124Z,7.53
2019-05-23T05:07:19.870Z,10.07
2019-05-23T05:09:51.268Z,6.10
2019-05-23T05:12:23.228Z,10.73
2019-05-23T05:14:54.392Z,7.87
2019-05-23T05:17:25.432Z,8.83
2019-05-23T05:19:55.781Z,7.87
2019-05-23T05:22:26.262Z,10.83
2019-05-23T05:24:56.940Z,11.47
2019-05-23T05:27:27.435Z,7.67
2019-05-23T05:29:57.923Z,9.03
2019-05-23T05:32:43.414Z,10.33
2019-05-23T05:35:00.900Z,8.90
2019-05-23T05:37:31.210Z,9.40
2019-05-23T05:40:01.948Z,9.87
2019-05-23T05:42:34.093Z,7.27
2019-05-23T05:45:05.760Z,8.93
2019-05-23T05:47:36.818Z,7.93
2019-05-23T05:50:10.041Z,9.20
2019-05-23T05:52:41.170Z,10.13
2019-05-23T05:55:13.493Z,8.50
2019-05-23T05:57:43.854Z,9.30
2019-05-23T06:00:39.148Z,7.20
2019-05-23T06:03:09.918Z,9.70
2019-05-23T06:05:49.028Z,8.93
2019-05-23T06:08:20.285Z,7.10
2019-05-23T06:10:50.597Z,8.60
2019-05-23T06:13:21.732Z,8.13
2019-05-23T06:15:52.972Z,7.93
2019-05-23T06:18:24.470Z,9.57
2019-05-23T06:20:55.511Z,7.47
2019-05-23T06:23:26.330Z,7.50
2019-05-23T06:25:56.872Z,8.30
2019-05-23T06:28:27.881Z,6.87
2019-05-23T06:30:59.169Z,8.30
2019-05-23T06:33:31.554Z,8.63
2019-05-23T06:36:02.739Z,9.20
2019-05-23T06:38:33.515Z,6.10
2019-05-23T06:41:05.958Z,7.83
2019-05-23T06:43:37.642Z,8.33
2019-05-23T06:46:08.231Z,7.47
2019-05-23T06:48:38.618Z,8.53
2019-05-23T06:51:09.030Z,8.73
2019-05-23T06:53:39.345Z,7.23
2019-05-23T06:56:13.296Z,11.17
2019-05-23T06:58:43.595Z,7.53
2019-05-23T07:01:14.125Z,8.70
2019-05-23T07:03:46.139Z,8.70
2019-05-23T07:06:19.911Z,8.73
2019-05-23T07:08:50.814Z,10.40
2019-05-23T07:11:23.985Z,7.63
2019-05-23T07:13:54.560Z,7.37
2019-05-23T07:16:25.170Z,7.00
2019-05-23T07:18:55.514Z,6.73
2019-05-23T07:21:25.866Z,6.37
2019-05-23T07:23:56.282Z,7.40
2019-05-23T07:26:26.968Z,8.30
2019-05-23T07:28:57.731Z,5.90
2019-05-23T07:31:28.087Z,7.47
2019-05-23T07:34:02.156Z,6.17
2019-05-23T07:36:31.037Z,6.77
2019-05-23T07:39:01.454Z,8.30
2019-05-23T07:41:32.129Z,8.47
2019-05-23T07:44:03.812Z,8.33
2019-05-23T07:46:34.211Z,9.03
2019-05-23T07:49:04.869Z,6.77
2019-05-23T07:51:35.207Z,9.50
2019-05-23T07:54:29.715Z,9.00
2019-05-23T07:57:00.333Z,7.53
2019-05-23T07:59:30.983Z,9.27
2019-05-23T08:02:10.955Z,8.73
2019-05-23T08:04:41.338Z,8.10
2019-05-23T08:07:13.260Z,7.77
2019-05-23T08:09:43.882Z,10.47
2019-05-23T08:12:14.243Z,7.50
2019-05-23T08:14:45.681Z,9.10
2019-05-23T08:17:17.058Z,9.10
2019-05-23T08:19:50.112Z,8.27
2019-05-23T08:22:19.377Z,6.80
2019-05-23T08:24:51.268Z,7.60
2019-05-23T08:27:22.953Z,6.83
2019-05-23T08:29:53.322Z,10.30
2019-05-23T08:32:24.205Z,6.40
2019-05-23T08:34:55.595Z,7.33
2019-05-23T08:37:26.167Z,7.80
2019-05-23T08:39:57.825Z,7.53
2019-05-23T08:42:28.584Z,7.93
2019-05-23T08:44:59.023Z,7.70
2019-05-23T08:47:29.494Z,5.70
2019-05-23T08:50:00.458Z,6.57
2019-05-23T08:52:31.205Z,8.17
2019-05-23T08:55:04.505Z,8.60
2019-05-23T08:57:34.952Z,7.60
2019-05-23T09:00:06.543Z,7.87
2019-05-23T09:02:38.468Z,7.80
2019-05-23T09:05:10.277Z,8.40
2019-05-23T09:07:40.694Z,7.60
2019-05-23T09:10:12.625Z,7.27
2019-05-23T09:12:43.217Z,6.17
2019-05-23T09:15:14.808Z,6.00
2019-05-23T09:17:53.069Z,6.60
2019-05-23T09:20:18.381Z,5.93
2019-05-23T09:22:48.844Z,6.77
2019-05-23T09:25:19.341Z,5.97
2019-05-23T09:27:51.691Z,5.40
2019-05-23T09:30:23.846Z,6.53
2019-05-23T09:32:54.207Z,5.97
2019-05-23T09:35:25.253Z,5.93
2019-05-23T09:37:55.633Z,6.27
2019-05-23T09:40:27.402Z,6.27
2019-05-23T09:42:57.794Z,4.97
2019-05-23T09:45:28.313Z,6.77
2019-05-23T09:47:58.672Z,8.13
2019-05-23T09:50:29.480Z,7.20
2019-05-23T09:52:59.867Z,5.80
2019-05-23T09:55:30.438Z,6.80
2019-05-23T09:58:00.784Z,7.07
2019-05-23T10:00:32.418Z,6.67
2019-05-23T10:03:22.218Z,7.27
2019-05-23T10:05:52.592Z,7.27
2019-05-23T10:08:23.023Z,7.83
2019-05-23T10:10:53.745Z,7.00
2019-05-23T10:13:38.581Z,7.33
2019-05-23T10:16:15.978Z,9.43
2019-05-23T10:18:46.557Z,6.33
2019-05-23T10:21:16.929Z,10.70
2019-05-23T10:23:47.321Z,10.23
2019-05-23T10:26:17.941Z,12.70
2019-05-23T10:28:48.311Z,10.67
2019-05-23T10:31:18.913Z,14.10
2019-05-23T10:33:49.332Z,13.90
2019-05-23T10:36:20.280Z,13.47
2019-05-23T10:38:50.752Z,13.10
2019-05-23T10:41:21.494Z,14.60
2019-05-23T10:43:52.272Z,15.33
2019-05-23T10:46:23.357Z,14.40
2019-05-23T10:48:53.674Z,15.20
2019-05-23T10:51:24.019Z,17.77
2019-05-23T10:53:54.344Z,14.00
2019-05-23T10:56:24.848Z,15.90
2019-05-23T10:58:55.337Z,15.57
2019-05-23T11:01:26.467Z,15.10
2019-05-23T11:03:56.945Z,12.63
2019-05-23T11:06:27.786Z,12.90
2019-05-23T11:08:58.176Z,12.90
2019-05-23T11:11:28.646Z,15.10
2019-05-23T11:13:59.061Z,12.50
2019-05-23T11:16:30.680Z,11.53
2019-05-23T11:19:01.005Z,13.10
2019-05-23T11:21:31.343Z,11.77
2019-05-23T11:24:01.966Z,12.90
2019-05-23T11:26:33.238Z,8.20
2019-05-23T11:29:03.643Z,12.07
2019-05-23T11:31:33.990Z,7.83
2019-05-23T11:34:08.566Z,9.03
2019-05-23T11:36:38.916Z,8.43
2019-05-23T11:39:09.877Z,7.97
2019-05-23T11:41:40.408Z,7.73
2019-05-23T11:44:10.747Z,8.60
2019-05-23T11:46:41.636Z,8.97
2019-05-23T11:49:12.033Z,9.07
2019-05-23T11:51:42.259Z,8.90
2019-05-23T11:54:12.614Z,8.00
2019-05-23T11:56:43.119Z,9.43
2019-05-23T11:59:13.558Z,7.90
2019-05-23T12:02:00.426Z,11.93
2019-05-23T12:04:39.604Z,13.90
2019-05-23T12:07:15.190Z,12.90
2019-05-23T12:12:32.101Z,11.37
2019-05-23T12:15:02.405Z,12.83
2019-05-23T12:17:33.578Z,10.63
2019-05-23T12:20:04.647Z,11.90
2019-05-23T12:22:36.212Z,11.00
2019-05-23T12:25:21.358Z,13.70
2019-05-23T12:27:39.850Z,9.80
2019-05-23T12:30:13.476Z,11.07
2019-05-23T12:32:43.893Z,10.37
2019-05-23T12:35:14.222Z,13.37
2019-05-23T12:37:44.558Z,14.23
2019-05-23T12:40:16.142Z,11.57
2019-05-23T12:42:46.535Z,13.07
2019-05-23T12:45:17.528Z,11.00
2019-05-23T12:47:56.463Z,17.50
2019-05-23T12:50:30.500Z,11.57
2019-05-23T12:53:00.833Z,19.87
2019-05-23T12:55:31.672Z,14.43
2019-05-23T12:58:02.101Z,13.27
2019-05-23T13:00:50.936Z,14.27
2019-05-23T13:03:21.962Z,14.07
2019-05-23T13:05:52.288Z,12.93
2019-05-23T13:08:22.671Z,12.23
2019-05-23T13:10:53.050Z,17.17
2019-05-23T13:13:23.497Z,13.77
2019-05-23T13:15:53.814Z,14.93
2019-05-23T13:18:24.414Z,14.07
2019-05-23T13:20:59.670Z,16.17
2019-05-23T13:23:30.292Z,20.57
2019-05-23T13:26:00.568Z,14.43
2019-05-23T13:28:31.728Z,16.40
2019-05-23T13:31:02.070Z,12.50
2019-05-23T13:33:32.765Z,11.93
2019-05-23T13:36:03.131Z,15.33
2019-05-23T13:38:33.490Z,17.10
2019-05-23T13:41:05.217Z,14.10
2019-05-23T13:43:35.715Z,11.90
2019-05-23T13:46:06.181Z,10.20
2019-05-23T13:48:55.605Z,15.10
2019-05-23T13:51:25.978Z,16.70
2019-05-23T13:53:56.373Z,14.07
2019-05-23T13:56:26.930Z,14.23
2019-05-23T13:58:57.596Z,15.90
2019-05-23T14:01:35.327Z,13.33
2019-05-23T14:04:05.919Z,14.40
2019-05-23T14:06:36.382Z,16.33
2019-05-23T14:09:09.060Z,16.23
2019-05-23T14:11:39.464Z,15.07
2019-05-23T14:14:10.568Z,16.67
2019-05-23T14:16:50.653Z,20.53
2019-05-23T14:19:22.454Z,19.03
2019-05-23T14:21:52.764Z,13.53
2019-05-23T14:24:23.146Z,17.53
2019-05-23T14:27:01.486Z,13.10
2019-05-23T14:29:33.378Z,14.60
2019-05-23T14:32:31.827Z,17.67
2019-05-23T14:35:02.378Z,16.90
2019-05-23T14:37:39.058Z,15.97
2019-05-23T14:40:12.350Z,14.63
2019-05-23T14:42:57.034Z,14.73
2019-05-23T14:45:45.254Z,16.50
2019-05-23T14:48:31.901Z,14.70
2019-05-23T14:51:13.346Z,19.07
2019-05-23T14:53:46.793Z,16.77
2019-05-23T14:56:20.377Z,17.30
2019-05-23T14:58:50.678Z,15.10
2019-05-23T15:01:23.395Z,13.83
2019-05-23T15:03:54.043Z,15.90
2019-05-23T15:06:25.588Z,13.40
2019-05-23T15:08:55.963Z,13.87
2019-05-23T15:11:26.304Z,15.20
2019-05-23T15:13:57.030Z,13.50
2019-05-23T15:16:28.043Z,15.00
2019-05-23T15:18:58.647Z,17.10
2019-05-23T15:21:29.809Z,13.90
2019-05-23T15:24:00.111Z,15.20
2019-05-23T15:26:30.420Z,14.23
2019-05-23T15:29:00.773Z,13.80
2019-05-23T15:31:31.089Z,13.10
2019-05-23T15:34:01.497Z,11.10
2019-05-23T15:36:31.853Z,17.40
2019-05-23T15:39:09.486Z,17.10
2019-05-23T15:41:34.257Z,16.30
2019-05-23T15:44:22.923Z,16.97
2019-05-23T15:46:37.355Z,13.70
2019-05-23T15:49:08.662Z,13.40
2019-05-23T15:51:45.570Z,12.40
2019-05-23T15:54:33.604Z,10.70
2019-05-23T15:57:09.939Z,13.93
2019-05-23T16:00:02.186Z,12.87
2019-05-23T16:02:38.102Z,10.80
2019-05-23T16:05:12.285Z,13.80
2019-05-23T16:07:42.660Z,12.97
2019-05-23T16:10:13.009Z,13.53
2019-05-23T16:12:43.378Z,13.70
2019-05-23T16:15:18.118Z,15.33
2019-05-23T16:17:48.490Z,11.93
2019-05-23T16:20:19.171Z,11.73
2019-05-23T16:22:49.534Z,12.83
2019-05-23T16:25:23.841Z,13.50
2019-05-23T16:27:54.385Z,11.43
2019-05-23T16:30:24.726Z,19.20
2019-05-23T16:32:55.075Z,14.97
2019-05-23T16:35:25.668Z,11.10
2019-05-23T16:37:56.031Z,15.40
2019-05-23T16:40:26.435Z,14.83
2019-05-23T16:42:56.847Z,12.90
2019-05-23T16:45:27.246Z,14.33
2019-05-23T16:47:57.654Z,15.23
2019-05-23T16:50:28.025Z,12.47
2019-05-23T16:52:58.387Z,13.30
2019-05-23T16:55:41.030Z,14.17
2019-05-23T16:58:19.610Z,10.17
2019-05-23T17:01:24.234Z,14.43
2019-05-23T17:03:58.190Z,14.67
2019-05-23T17:06:50.486Z,12.40
2019-05-23T17:10:06.177Z,12.63
2019-05-23T17:12:55.414Z,12.20
2019-05-23T17:15:43.045Z,11.33
2019-05-23T17:18:21.372Z,13.60
2019-05-23T17:21:19.405Z,12.67
2019-05-23T17:23:58.100Z,13.90
2019-05-23T17:26:47.769Z,12.07
2019-05-23T17:29:26.354Z,11.57
2019-05-23T17:31:56.770Z,13.43
2019-05-23T17:34:27.264Z,11.23
2019-05-23T17:36:57.658Z,12.03
2019-05-23T17:39:28.302Z,12.93
2019-05-23T17:41:58.626Z,14.90
2019-05-23T17:44:29.037Z,12.97
2019-05-23T17:46:59.551Z,14.20
2019-05-23T17:49:30.033Z,10.30
2019-05-23T17:52:00.389Z,14.20
2019-05-23T17:54:31.144Z,12.23
2019-05-23T17:57:01.580Z,9.30
2019-05-23T17:59:31.932Z,12.47
2019-05-23T18:02:03.742Z,11.07
2019-05-23T18:04:34.041Z,15.60
2019-05-23T18:07:04.829Z,12.70
2019-05-23T18:09:35.389Z,16.80
2019-05-23T18:12:07.799Z,12.17
2019-05-23T18:14:38.445Z,14.27
2019-05-23T18:17:09.523Z,14.83
2019-05-23T18:19:40.138Z,13.57
2019-05-23T18:22:12.084Z,15.20
2019-05-23T18:24:43.800Z,14.93
2019-05-23T18:27:15.101Z,15.67
2019-05-23T18:29:45.373Z,12.90
2019-05-23T18:32:19.876Z,12.47
2019-05-23T18:34:50.492Z,13.77
2019-05-23T18:37:21.447Z,13.33
2019-05-23T18:39:52.347Z,12.90
2019-05-23T18:42:23.110Z,13.77
2019-05-23T18:44:53.782Z,15.47
2019-05-23T18:47:29.364Z,13.80
2019-05-23T18:49:59.728Z,12.67
2019-05-23T18:52:30.038Z,13.37
2019-05-23T18:55:00.997Z,13.80
2019-05-23T18:57:31.741Z,13.67
2019-05-23T19:00:02.108Z,11.97
2019-05-23T19:02:32.540Z,13.60
2019-05-23T19:05:02.887Z,16.40
2019-05-23T19:07:33.586Z,12.70
2019-05-23T19:10:05.046Z,13.43
2019-05-23T19:12:35.440Z,13.77
2019-05-23T19:15:06.456Z,14.20
2019-05-23T19:17:37.897Z,11.23
2019-05-23T19:20:09.177Z,12.83
2019-05-23T19:22:39.676Z,13.90
2019-05-23T19:25:11.952Z,17.70
2019-05-23T19:27:43.252Z,16.80
2019-05-23T19:30:13.723Z,12.60
2019-05-23T19:32:44.148Z,12.63
2019-05-23T19:35:15.266Z,11.60
2019-05-23T19:37:45.769Z,16.77
2019-05-23T19:40:16.706Z,11.50
2019-05-23T19:42:47.119Z,11.70
2019-05-23T19:45:17.676Z,13.40
2019-05-23T19:47:48.657Z,11.40
2019-05-23T19:50:19.560Z,14.07
2019-05-23T19:52:50.312Z,12.97
2019-05-23T19:55:23.874Z,12.17
2019-05-23T19:57:55.634Z,12.63
2019-05-23T20:00:28.817Z,15.43
2019-05-23T20:03:03.242Z,11.20
2019-05-23T20:05:36.712Z,12.40
2019-05-23T20:08:08.191Z,11.10
2019-05-23T20:10:38.836Z,12.07
2019-05-23T20:13:09.171Z,13.10
2019-05-23T20:15:39.827Z,10.93
2019-05-23T20:18:11.281Z,14.43
2019-05-23T20:20:41.933Z,13.43
2019-05-23T20:23:15.467Z,12.30
2019-05-23T20:25:44.766Z,11.03
2019-05-23T20:28:16.336Z,15.13
2019-05-23T20:30:52.977Z,14.40
2019-05-23T20:33:34.996Z,12.70
2019-05-23T20:36:11.926Z,9.83
2019-05-23T20:38:41.528Z,13.33
2019-05-23T20:41:12.408Z,12.47
2019-05-23T20:43:57.494Z,10.50
2019-05-23T20:46:29.762Z,12.00
2019-05-23T20:49:03.740Z,10.90
2019-05-23T20:51:35.567Z,10.83
2019-05-23T20:54:06.488Z,17.00
2019-05-23T20:56:36.976Z,9.53
2019-05-23T20:59:08.375Z,11.50
2019-05-23T21:01:42.441Z,12.40
2019-05-23T21:04:12.738Z,12.27
2019-05-23T21:06:43.175Z,12.33
2019-05-23T21:09:15.951Z,9.73
2019-05-23T21:11:45.988Z,13.63
2019-05-23T21:14:16.897Z,12.50
2019-05-23T21:16:47.431Z,9.60
2019-05-23T21:19:19.475Z,10.07
2019-05-23T21:21:49.924Z,9.93
2019-05-23T21:24:20.736Z,11.27
2019-05-23T21:26:53.060Z,11.20
2019-05-23T21:29:24.076Z,13.57
2019-05-23T21:31:54.552Z,12.50
2019-05-23T21:34:25.379Z,9.10
2019-05-23T21:36:55.949Z,11.03
2019-05-23T21:39:26.335Z,12.97
2019-05-23T21:41:58.630Z,10.20
2019-05-23T21:44:29.065Z,11.47
2019-05-23T21:46:59.772Z,11.00
2019-05-23T21:49:30.406Z,13.47
2019-05-23T21:52:01.938Z,9.07
2019-05-23T21:54:32.279Z,10.10
2019-05-23T21:57:02.966Z,12.03
2019-05-23T21:59:33.454Z,9.43
2019-05-23T22:02:24.536Z,10.10
2019-05-23T22:05:17.385Z,12.93
2019-05-23T22:07:48.219Z,10.47
2019-05-23T22:10:18.790Z,10.57
2019-05-23T22:13:03.383Z,10.60
2019-05-23T22:15:36.560Z,9.77
2019-05-23T22:18:07.501Z,11.30
2019-05-23T22:20:37.970Z,10.30
2019-05-23T22:23:08.568Z,12.00
2019-05-23T22:25:39.163Z,10.73
2019-05-23T22:28:10.938Z,10.60
2019-05-23T22:30:42.291Z,9.80
2019-05-23T22:33:13.912Z,10.83
2019-05-23T22:35:44.757Z,9.80
2019-05-23T22:38:15.174Z,10.97
2019-05-23T22:40:47.978Z,10.37
2019-05-23T22:43:21.213Z,9.03
2019-05-23T22:45:52.250Z,10.77
2019-05-23T22:48:22.833Z,7.23
2019-05-23T22:50:54.716Z,7.57
2019-05-23T22:53:25.012Z,10.13
2019-05-23T22:55:55.396Z,9.77
2019-05-23T22:58:28.312Z,8.73
2019-05-23T23:00:58.664Z,8.27
2019-05-23T23:03:29.422Z,9.37
2019-05-23T23:05:59.957Z,11.13
2019-05-23T23:08:31.424Z,8.40
2019-05-23T23:11:01.803Z,7.80
2019-05-23T23:13:38.610Z,8.77
2019-05-23T23:16:05.083Z,9.03
2019-05-23T23:18:39.446Z,10.73
2019-05-23T23:21:09.772Z,10.37
2019-05-23T23:23:40.180Z,8.30
2019-05-23T23:26:10.570Z,5.90
2019-05-23T23:28:41.804Z,9.13
2019-05-23T23:31:12.228Z,7.53
2019-05-23T23:33:42.581Z,8.67
2019-05-23T23:36:13.051Z,8.90
2019-05-23T23:38:43.450Z,7.13
2019-05-23T23:41:13.880Z,8.00
2019-05-23T23:43:58.807Z,7.70
2019-05-23T23:46:39.969Z,8.47
2019-05-23T23:49:28.038Z,8.67
2019-05-23T23:52:16.267Z,5.87
2019-05-23T23:55:05.486Z,8.57
2019-05-23T23:57:53.357Z,6.97
